createdAt,value
2023-08-22T00:00:17.026Z,100214.22
2023-08-22T00:02:44.404Z,100203.78
2023-08-22T00:05:13.004Z,100201.91
2023-08-22T00:07:41.004Z,100203.78
2023-08-22T00:10:10.003Z,100202.59
2023-08-22T00:12:36.750Z,100203.06
2023-08-22T00:15:06.512Z,100205.19
2023-08-22T00:17:33.433Z,100203.53
2023-08-22T00:20:00.191Z,100204.97
2023-08-22T00:22:26.935Z,100206.00
2023-08-22T00:24:53.732Z,100209.34
2023-08-22T00:27:20.676Z,100204.09
2023-08-22T00:29:47.404Z,100210.41
2023-08-22T00:32:15.358Z,100205.41
2023-08-22T00:34:42.326Z,100205.66
2023-08-22T00:37:09.743Z,100208.59
2023-08-22T00:39:36.724Z,100209.63
2023-08-22T00:42:03.485Z,100204.88
2023-08-22T00:44:30.197Z,100204.88
2023-08-22T00:46:57.007Z,100202.63
2023-08-22T00:49:23.812Z,100200.72
2023-08-22T00:51:50.514Z,100197.19
2023-08-22T00:54:18.640Z,100200.13
2023-08-22T00:56:45.340Z,100195.50
2023-08-22T00:59:12.629Z,100197.88
2023-08-22T01:01:39.455Z,100194.78
2023-08-22T01:04:06.596Z,100195.16
2023-08-22T01:07:08.764Z,100187.38
2023-08-22T01:09:40.399Z,100193.09
2023-08-22T01:12:23.463Z,100193.22
2023-08-22T01:15:07.029Z,100192.53
2023-08-22T01:17:34.157Z,100194.50
2023-08-22T01:20:01.072Z,100192.34
2023-08-22T01:22:27.952Z,100198.88
2023-08-22T01:24:54.683Z,100191.19
2023-08-22T01:27:22.796Z,100182.75
2023-08-22T01:29:57.350Z,100189.13
2023-08-22T01:32:38.261Z,100185.66
2023-08-22T01:35:06.972Z,100192.69
2023-08-22T01:37:34.227Z,100183.47
2023-08-22T01:40:05.830Z,100191.84
2023-08-22T01:42:33.241Z,100188.19
2023-08-22T01:45:00.035Z,100187.31
2023-08-22T01:47:26.889Z,100182.13
2023-08-22T01:49:53.703Z,100181.28
2023-08-22T01:52:22.075Z,100179.41
2023-08-22T01:54:49.853Z,100187.78
2023-08-22T01:57:16.569Z,100181.50
2023-08-22T01:59:43.361Z,100186.13
2023-08-22T02:02:10.051Z,100184.91
2023-08-22T02:04:36.708Z,100186.00
2023-08-22T02:07:05.169Z,100187.50
2023-08-22T02:09:32.005Z,100182.72
2023-08-22T02:11:58.920Z,100185.91
2023-08-22T02:14:27.165Z,100188.88
2023-08-22T02:16:54.109Z,100193.47
2023-08-22T02:19:20.842Z,100189.75
2023-08-22T02:21:47.624Z,100181.81
2023-08-22T02:24:15.205Z,100182.03
2023-08-22T02:26:43.997Z,100182.72
2023-08-22T02:29:10.760Z,100187.34
2023-08-22T02:31:37.594Z,100185.69
2023-08-22T02:34:05.928Z,100177.53
2023-08-22T02:36:33.365Z,100175.63
2023-08-22T02:39:00.104Z,100171.47
2023-08-22T02:41:26.813Z,100168.34
2023-08-22T02:43:53.676Z,100163.78
2023-08-22T02:46:20.585Z,100159.97
2023-08-22T02:48:48.265Z,100157.72
2023-08-22T02:51:15.088Z,100159.47
2023-08-22T02:53:42.028Z,100163.47
2023-08-22T02:56:09.325Z,100158.41
2023-08-22T02:58:36.080Z,100160.75
2023-08-22T03:01:05.585Z,100157.19
2023-08-22T03:03:33.237Z,100161.78
2023-08-22T03:06:00.993Z,100162.03
2023-08-22T03:08:28.291Z,100169.13
2023-08-22T03:11:00.848Z,100162.31
2023-08-22T03:13:31.586Z,100167.06
2023-08-22T03:16:01.271Z,100172.16
2023-08-22T03:18:33.027Z,100175.09
2023-08-22T03:20:59.962Z,100165.66
2023-08-22T03:23:27.329Z,100171.53
2023-08-22T03:25:57.129Z,100180.16
2023-08-22T03:28:24.568Z,100180.38
2023-08-22T03:31:04.481Z,100178.31
2023-08-22T03:33:34.251Z,100185.34
2023-08-22T03:36:04.906Z,100179.75
2023-08-22T03:38:32.156Z,100180.59
2023-08-22T03:40:59.081Z,100184.16
2023-08-22T03:43:25.961Z,100176.22
2023-08-22T03:45:52.841Z,100174.41
2023-08-22T03:48:19.685Z,100175.88
2023-08-22T03:50:48.312Z,100184.25
2023-08-22T03:53:16.234Z,100184.50
2023-08-22T03:55:44.478Z,100184.50
2023-08-22T03:58:11.891Z,100182.25
2023-08-22T04:00:39.544Z,100182.44
2023-08-22T04:03:07.122Z,100184.78
2023-08-22T04:05:34.045Z,100182.91
2023-08-22T04:08:02.345Z,100177.28
2023-08-22T04:10:29.072Z,100178.91
2023-08-22T04:12:55.864Z,100178.09
2023-08-22T04:15:22.619Z,100184.19
2023-08-22T04:17:51.381Z,100180.81
2023-08-22T04:20:18.611Z,100182.75
2023-08-22T04:22:45.564Z,100184.28
2023-08-22T04:25:12.672Z,100186.28
2023-08-22T04:27:40.982Z,100192.44
2023-08-22T04:30:10.236Z,100198.28
2023-08-22T04:32:37.644Z,100190.75
2023-08-22T04:35:06.396Z,100197.25
2023-08-22T04:37:33.820Z,100185.75
2023-08-22T04:40:01.936Z,100191.19
2023-08-22T04:42:39.796Z,100184.31
2023-08-22T04:45:08.879Z,100189.53
2023-08-22T04:47:35.870Z,100186.22
2023-08-22T04:50:02.703Z,100191.84
2023-08-22T04:52:30.313Z,100183.94
2023-08-22T04:54:57.625Z,100187.25
2023-08-22T04:57:25.018Z,100184.53
2023-08-22T04:59:54.605Z,100191.84
2023-08-22T05:02:25.958Z,100200.00
2023-08-22T05:04:53.253Z,100193.75
2023-08-22T05:07:20.313Z,100192.25
2023-08-22T05:09:47.192Z,100195.34
2023-08-22T05:12:14.716Z,100189.09
2023-08-22T05:14:43.032Z,100207.00
2023-08-22T05:17:09.914Z,100196.34
2023-08-22T05:19:39.029Z,100202.84
2023-08-22T05:22:05.984Z,100210.53
2023-08-22T05:24:32.987Z,100204.03
2023-08-22T05:26:59.829Z,100206.34
2023-08-22T05:29:26.587Z,100209.28
2023-08-22T05:31:54.540Z,100212.38
2023-08-22T05:34:21.685Z,100211.78
2023-08-22T05:36:48.463Z,100213.25
2023-08-22T05:39:15.188Z,100200.91
2023-08-22T05:41:42.283Z,100213.00
2023-08-22T05:44:09.941Z,100205.47
2023-08-22T05:46:39.008Z,100203.56
2023-08-22T05:49:06.785Z,100207.53
2023-08-22T05:51:33.495Z,100200.66
2023-08-22T05:54:01.322Z,100193.97
2023-08-22T05:56:29.028Z,100201.84
2023-08-22T05:58:56.171Z,100205.63
2023-08-22T06:01:22.967Z,100204.13
2023-08-22T06:03:49.845Z,100207.69
2023-08-22T06:06:17.039Z,100207.69
2023-08-22T06:08:43.987Z,100202.88
2023-08-22T06:11:11.157Z,100208.50
2023-08-22T06:13:37.954Z,100202.69
2023-08-22T06:16:05.877Z,100206.47
2023-08-22T06:18:32.723Z,100206.00
2023-08-22T06:21:00.881Z,100210.34
2023-08-22T06:23:27.845Z,100213.06
2023-08-22T06:25:56.635Z,100215.94
2023-08-22T06:28:23.419Z,100214.44
2023-08-22T06:30:50.281Z,100220.94
2023-08-22T06:33:17.797Z,100221.97
2023-08-22T06:35:48.227Z,100215.25
2023-08-22T06:38:15.138Z,100220.84
2023-08-22T06:40:43.207Z,100221.91
2023-08-22T06:43:10.282Z,100220.03
2023-08-22T06:45:38.113Z,100219.19
2023-08-22T06:48:05.342Z,100222.53
2023-08-22T06:50:32.189Z,100211.41
2023-08-22T06:52:59.350Z,100221.00
2023-08-22T06:55:26.605Z,100219.97
2023-08-22T06:57:53.370Z,100222.44
2023-08-22T07:00:20.507Z,100227.88
2023-08-22T07:02:48.413Z,100222.22
2023-08-22T07:05:16.251Z,100227.22
2023-08-22T07:07:43.541Z,100224.50
2023-08-22T07:10:12.170Z,100226.75
2023-08-22T07:12:40.118Z,100222.19
2023-08-22T07:15:10.287Z,100228.19
2023-08-22T07:17:37.061Z,100230.91
2023-08-22T07:20:04.434Z,100234.66
2023-08-22T07:22:31.364Z,100229.22
2023-08-22T07:24:58.092Z,100232.50
2023-08-22T07:27:24.745Z,100224.97
2023-08-22T07:29:51.698Z,100223.25
2023-08-22T07:32:21.913Z,100225.28
2023-08-22T07:34:49.300Z,100227.78
2023-08-22T07:37:17.054Z,100230.06
2023-08-22T07:39:44.080Z,100230.88
2023-08-22T07:42:10.958Z,100229.84
2023-08-22T07:44:37.675Z,100227.84
2023-08-22T07:47:04.482Z,100229.28
2023-08-22T07:49:31.203Z,100232.00
2023-08-22T07:51:58.050Z,100231.31
2023-08-22T07:54:24.815Z,100230.03
2023-08-22T07:56:58.915Z,100227.31
2023-08-22T07:59:31.684Z,100223.56
2023-08-22T08:01:58.527Z,100228.75
2023-08-22T08:04:25.549Z,100214.69
2023-08-22T08:06:52.390Z,100235.78
2023-08-22T08:09:33.038Z,100214.00
2023-08-22T08:12:00.082Z,100215.00
2023-08-22T08:14:26.789Z,100221.88
2023-08-22T08:16:53.520Z,100221.41
2023-08-22T08:19:20.386Z,100226.16
2023-08-22T08:21:47.321Z,100214.56
2023-08-22T08:24:16.112Z,100220.38
2023-08-22T08:26:42.869Z,100209.19
2023-08-22T08:29:10.227Z,100215.00
2023-08-22T08:31:36.999Z,100212.41
2023-08-22T08:34:05.538Z,100213.63
2023-08-22T08:36:32.610Z,100207.69
2023-08-22T08:38:59.498Z,100219.94
2023-08-22T08:41:26.337Z,100203.13
2023-08-22T08:43:53.230Z,100219.00
2023-08-22T08:46:20.689Z,100214.75
2023-08-22T08:48:48.177Z,100209.66
2023-08-22T08:51:17.165Z,100211.31
2023-08-22T08:53:43.941Z,100220.06
2023-08-22T08:56:12.198Z,100207.28
2023-08-22T08:58:40.005Z,100215.81
2023-08-22T09:01:08.498Z,100207.44
2023-08-22T09:03:35.213Z,100215.94
2023-08-22T09:06:01.941Z,100217.38
2023-08-22T09:08:28.650Z,100211.22
2023-08-22T09:10:55.384Z,100206.59
2023-08-22T09:13:38.962Z,100212.66
2023-08-22T09:16:17.484Z,100215.16
2023-08-22T09:18:44.309Z,100219.34
2023-08-22T09:21:11.983Z,100212.56
2023-08-22T09:23:43.841Z,100204.97
2023-08-22T09:26:14.657Z,100214.34
2023-08-22T09:28:41.982Z,100212.22
2023-08-22T09:31:08.937Z,100216.59
2023-08-22T09:33:48.764Z,100214.56
2023-08-22T09:36:20.393Z,100212.94
2023-08-22T09:38:58.516Z,100211.25
2023-08-22T09:41:31.763Z,100205.31
2023-08-22T09:44:01.754Z,100208.16
2023-08-22T09:46:28.822Z,100212.69
2023-08-22T09:49:00.742Z,100212.69
2023-08-22T09:51:28.064Z,100213.28
2023-08-22T09:54:01.083Z,100213.88
2023-08-22T09:56:28.199Z,100216.13
2023-08-22T09:58:55.156Z,100203.56
2023-08-22T10:01:25.789Z,100200.09
2023-08-22T10:03:54.837Z,100202.81
2023-08-22T10:06:38.628Z,100209.59
2023-08-22T10:09:12.935Z,100195.25
2023-08-22T10:11:50.255Z,100207.22
2023-08-22T10:14:44.591Z,100198.22
2023-08-22T10:17:13.000Z,100194.31
2023-08-22T10:19:40.034Z,100195.47
2023-08-22T10:22:16.249Z,100196.78
2023-08-22T10:24:43.446Z,100197.25
2023-08-22T10:27:15.063Z,100193.66
2023-08-22T10:29:47.163Z,100189.53
2023-08-22T10:32:21.378Z,100200.44
2023-08-22T10:34:48.056Z,100185.97
2023-08-22T10:37:21.391Z,100186.69
2023-08-22T10:39:49.717Z,100189.75
2023-08-22T10:42:18.884Z,100187.59
2023-08-22T10:45:10.136Z,100186.34
2023-08-22T10:47:36.974Z,100193.47
2023-08-22T10:50:16.461Z,100187.59
2023-08-22T10:52:45.112Z,100186.69
2023-08-22T10:55:14.049Z,100186.44
2023-08-22T10:57:48.046Z,100189.16
2023-08-22T11:00:23.393Z,100187.03
2023-08-22T11:02:58.396Z,100181.34
2023-08-22T11:05:25.442Z,100183.31
2023-08-22T11:07:55.273Z,100180.13
2023-08-22T11:10:24.051Z,100175.50
2023-08-22T11:12:51.919Z,100190.56
2023-08-22T11:15:19.177Z,100177.16
2023-08-22T11:17:50.070Z,100176.91
2023-08-22T11:20:18.887Z,100175.94
2023-08-22T11:22:46.141Z,100182.81
2023-08-22T11:25:13.957Z,100174.88
2023-08-22T11:27:41.290Z,100177.13
2023-08-22T11:30:09.473Z,100195.16
2023-08-22T11:32:40.990Z,100176.03
2023-08-22T11:35:08.959Z,100172.25
2023-08-22T11:37:42.015Z,100168.69
2023-08-22T11:40:16.678Z,100160.94
2023-08-22T11:42:44.150Z,100153.34
2023-08-22T11:45:14.929Z,100160.22
2023-08-22T11:47:54.049Z,100146.56
2023-08-22T11:50:24.749Z,100153.44
2023-08-22T11:52:58.944Z,100142.50
2023-08-22T11:55:27.958Z,100143.66
2023-08-22T11:58:03.013Z,100141.50
2023-08-22T12:00:32.037Z,100146.25
2023-08-22T12:03:01.066Z,100146.25
2023-08-22T12:05:39.362Z,100151.38
2023-08-22T12:08:12.127Z,100148.97
2023-08-22T12:10:46.001Z,100140.28
2023-08-22T12:13:14.948Z,100145.75
2023-08-22T12:15:42.172Z,100140.41
2023-08-22T12:18:10.261Z,100144.31
2023-08-22T12:20:41.271Z,100141.56
2023-08-22T12:23:09.975Z,100142.72
2023-08-22T12:25:38.223Z,100132.88
2023-08-22T12:28:05.416Z,100127.19
2023-08-22T12:30:34.457Z,100122.53
2023-08-22T12:33:02.268Z,100117.56
2023-08-22T12:35:29.161Z,100126.09
2023-08-22T12:37:55.937Z,100119.53
2023-08-22T12:40:22.689Z,100113.84
2023-08-22T12:42:49.456Z,100117.97
2023-08-22T12:45:16.347Z,100107.13
2023-08-22T12:47:44.123Z,100108.22
2023-08-22T12:50:11.660Z,100112.38
2023-08-22T12:52:38.798Z,100108.03
2023-08-22T12:55:08.107Z,100102.06
2023-08-22T12:57:40.605Z,100107.53
2023-08-22T13:00:11.437Z,100104.06
2023-08-22T13:02:39.611Z,100101.91
2023-08-22T13:05:07.625Z,100098.34
2023-08-22T13:07:34.526Z,100098.34
2023-08-22T13:10:01.277Z,100101.41
2023-08-22T13:12:28.167Z,100088.31
2023-08-22T13:14:55.215Z,100099.59
2023-08-22T13:17:22.084Z,100088.75
2023-08-22T13:19:48.900Z,100084.59
2023-08-22T13:22:15.630Z,100070.66
2023-08-22T13:24:42.544Z,100072.66
2023-08-22T13:27:09.616Z,100067.44
2023-08-22T13:29:36.440Z,100071.56
2023-08-22T13:32:03.845Z,100068.84
2023-08-22T13:34:30.531Z,100062.53
2023-08-22T13:36:57.329Z,100074.63
2023-08-22T13:39:24.035Z,100064.63
2023-08-22T13:41:50.759Z,100069.28
2023-08-22T13:44:17.661Z,100070.34
2023-08-22T13:46:44.942Z,100066.84
2023-08-22T13:49:11.698Z,100067.44
2023-08-22T13:51:38.497Z,100070.16
2023-08-22T13:54:05.316Z,100075.13
2023-08-22T13:56:32.207Z,100071.63
2023-08-22T13:58:59.359Z,100070.00
2023-08-22T14:01:27.599Z,100070.53
2023-08-22T14:03:54.768Z,100070.31
2023-08-22T14:06:21.716Z,100069.78
2023-08-22T14:08:49.265Z,100062.09
2023-08-22T14:11:16.083Z,100065.66
2023-08-22T14:13:44.065Z,100066.47
2023-08-22T14:16:11.431Z,100063.66
2023-08-22T14:18:39.105Z,100073.03
2023-08-22T14:21:06.199Z,100072.16
2023-08-22T14:23:32.919Z,100072.38
2023-08-22T14:25:59.753Z,100074.53
2023-08-22T14:28:26.825Z,100072.66
2023-08-22T14:31:03.382Z,100069.06
2023-08-22T14:33:30.128Z,100076.78
2023-08-22T14:35:57.496Z,100070.47
2023-08-22T14:38:24.306Z,100065.59
2023-08-22T14:40:58.228Z,100065.00
2023-08-22T14:43:27.908Z,100059.28
2023-08-22T14:45:58.035Z,100051.09
2023-08-22T14:48:25.105Z,100067.25
2023-08-22T14:50:55.917Z,100063.19
2023-08-22T14:53:23.066Z,100056.38
2023-08-22T14:56:04.756Z,100064.25
2023-08-22T14:58:42.231Z,100064.84
2023-08-22T15:01:10.114Z,100060.81
2023-08-22T15:03:37.297Z,100054.25
2023-08-22T15:06:04.250Z,100062.47
2023-08-22T15:08:31.670Z,100062.81
2023-08-22T15:11:01.526Z,100057.84
2023-08-22T15:13:29.883Z,100061.06
2023-08-22T15:15:57.555Z,100059.72
2023-08-22T15:18:24.998Z,100060.31
2023-08-22T15:20:53.637Z,100061.97
2023-08-22T15:23:21.829Z,100053.44
2023-08-22T15:25:52.991Z,100056.69
2023-08-22T15:28:19.816Z,100058.59
2023-08-22T15:30:46.747Z,100056.13
2023-08-22T15:33:13.542Z,100053.66
2023-08-22T15:35:47.469Z,100050.56
2023-08-22T15:38:15.032Z,100053.31
2023-08-22T15:40:51.958Z,100048.88
2023-08-22T15:43:19.881Z,100050.00
2023-08-22T15:45:47.781Z,100051.91
2023-08-22T15:48:14.666Z,100047.78
2023-08-22T15:50:42.282Z,100049.38
2023-08-22T15:53:10.200Z,100047.97
2023-08-22T15:55:36.915Z,100045.19
2023-08-22T15:58:03.830Z,100043.25
2023-08-22T16:00:31.765Z,100045.38
2023-08-22T16:02:59.463Z,100039.91
2023-08-22T16:05:26.621Z,100044.81
2023-08-22T16:07:53.390Z,100039.03
2023-08-22T16:10:20.238Z,100034.63
2023-08-22T16:12:46.964Z,100034.06
2023-08-22T16:15:13.846Z,100038.69
2023-08-22T16:17:40.655Z,100034.06
2023-08-22T16:20:08.137Z,100034.31
2023-08-22T16:22:34.882Z,100037.03
2023-08-22T16:25:01.646Z,100036.22
2023-08-22T16:27:36.979Z,100037.88
2023-08-22T16:30:06.431Z,100035.41
2023-08-22T16:32:33.591Z,100034.56
2023-08-22T16:35:01.142Z,100028.25
2023-08-22T16:37:28.120Z,100026.88
2023-08-22T16:39:54.866Z,100028.19
2023-08-22T16:42:21.885Z,100027.94
2023-08-22T16:44:48.613Z,100035.34
2023-08-22T16:47:15.406Z,100032.59
2023-08-22T16:49:42.114Z,100027.94
2023-08-22T16:52:08.842Z,100027.38
2023-08-22T16:54:35.540Z,100036.38
2023-08-22T16:57:02.373Z,100024.06
2023-08-22T16:59:29.498Z,100025.16
2023-08-22T17:01:56.800Z,100019.69
2023-08-22T17:04:23.548Z,100033.06
2023-08-22T17:06:50.252Z,100036.06
2023-08-22T17:09:19.169Z,100033.34
2023-08-22T17:11:45.969Z,100030.34
2023-08-22T17:14:12.912Z,100036.66
2023-08-22T17:16:39.707Z,100038.81
2023-08-22T17:19:06.521Z,100036.91
2023-08-22T17:21:34.217Z,100046.75
2023-08-22T17:24:00.963Z,100036.06
2023-08-22T17:26:27.857Z,100047.84
2023-08-22T17:28:54.634Z,100045.09
2023-08-22T17:31:22.548Z,100047.84
2023-08-22T17:33:49.647Z,100044.50
2023-08-22T17:36:16.570Z,100048.06
2023-08-22T17:38:44.672Z,100049.16
2023-08-22T17:41:12.529Z,100052.41
2023-08-22T17:43:40.291Z,100045.03
2023-08-22T17:46:07.519Z,100050.50
2023-08-22T17:48:35.126Z,100047.41
2023-08-22T17:51:01.963Z,100049.31
2023-08-22T17:53:29.063Z,100050.16
2023-08-22T17:55:55.989Z,100052.56
2023-08-22T17:58:23.432Z,100056.38
2023-08-22T18:00:51.328Z,100064.81
2023-08-22T18:03:18.754Z,100063.19
2023-08-22T18:05:59.134Z,100063.03
2023-08-22T18:08:26.614Z,100055.13
2023-08-22T18:10:54.240Z,100054.31
2023-08-22T18:13:21.352Z,100055.66
2023-08-22T18:18:33.865Z,100061.03
2023-08-22T18:21:04.875Z,100063.41
2023-08-22T18:23:32.015Z,100071.59
2023-08-22T18:26:03.418Z,100076.97
2023-08-22T18:28:32.363Z,100066.53
2023-08-22T18:31:02.064Z,100073.91
2023-08-22T18:33:28.878Z,100076.88
2023-08-22T18:35:55.771Z,100079.88
2023-08-22T18:38:23.128Z,100080.09
2023-08-22T18:40:53.711Z,100072.31
2023-08-22T18:43:20.439Z,100077.78
2023-08-22T18:45:47.521Z,100086.47
2023-08-22T18:48:14.482Z,100084.25
2023-08-22T18:50:41.265Z,100096.22
2023-08-22T18:53:08.019Z,100087.22
2023-08-22T18:55:35.749Z,100082.25
2023-08-22T18:58:02.759Z,100089.63
2023-08-22T19:00:29.509Z,100097.22
2023-08-22T19:02:57.937Z,100093.06
2023-08-22T19:05:25.143Z,100094.97
2023-08-22T19:07:52.758Z,100106.97
2023-08-22T19:10:20.138Z,100101.41
2023-08-22T19:12:46.984Z,100107.94
2023-08-22T19:15:13.783Z,100109.50
2023-08-22T19:17:40.678Z,100117.09
2023-08-22T19:20:07.945Z,100116.53
2023-08-22T19:22:35.341Z,100117.00
2023-08-22T19:25:02.281Z,100118.06
2023-08-22T19:27:29.609Z,100118.91
2023-08-22T19:29:56.468Z,100117.50
2023-08-22T19:32:40.150Z,100119.41
2023-08-22T19:35:10.175Z,100118.81
2023-08-22T19:37:37.376Z,100116.91
2023-08-22T19:40:04.379Z,100131.03
2023-08-22T19:42:31.167Z,100129.38
2023-08-22T19:44:59.153Z,100131.03
2023-08-22T19:47:26.042Z,100138.41
2023-08-22T19:49:52.927Z,100136.50
2023-08-22T19:52:23.458Z,100138.00
2023-08-22T19:54:50.263Z,100149.41
2023-08-22T19:57:16.999Z,100140.41
2023-08-22T19:59:43.757Z,100146.69
2023-08-22T20:02:10.624Z,100141.22
2023-08-22T20:04:37.504Z,100142.03
2023-08-22T20:07:04.517Z,100149.41
2023-08-22T20:09:31.255Z,100147.75
2023-08-22T20:11:57.958Z,100144.44
2023-08-22T20:14:24.673Z,100143.03
2023-08-22T20:16:51.521Z,100156.88
2023-08-22T20:19:19.240Z,100148.16
2023-08-22T20:21:46.945Z,100146.47
2023-08-22T20:24:15.825Z,100159.28
2023-08-22T20:26:42.700Z,100147.19
2023-08-22T20:29:11.804Z,100147.78
2023-08-22T20:31:38.868Z,100154.81
2023-08-22T20:34:05.744Z,100150.41
2023-08-22T20:36:32.483Z,100146.03
2023-08-22T20:39:01.111Z,100150.66
2023-08-22T20:41:30.390Z,100150.06
2023-08-22T20:43:58.733Z,100153.84
2023-08-22T20:46:25.695Z,100155.75
2023-08-22T20:48:52.522Z,100157.88
2023-08-22T20:51:19.200Z,100162.50
2023-08-22T20:53:45.958Z,100158.38
2023-08-22T20:56:12.660Z,100164.06
2023-08-22T20:58:39.446Z,100159.66
2023-08-22T21:01:06.181Z,100162.66
2023-08-22T21:03:32.979Z,100160.38
2023-08-22T21:05:59.854Z,100160.63
2023-08-22T21:08:26.639Z,100160.03
2023-08-22T21:10:53.334Z,100165.16
2023-08-22T21:13:20.061Z,100172.47
2023-08-22T21:15:46.774Z,100167.50
2023-08-22T21:18:13.655Z,100170.50
2023-08-22T21:20:40.468Z,100174.28
2023-08-22T21:23:10.452Z,100171.53
2023-08-22T21:25:37.670Z,100172.03
2023-08-22T21:28:04.828Z,100174.97
2023-08-22T21:30:31.615Z,100174.16
2023-08-22T21:32:58.416Z,100174.63
2023-08-22T21:35:25.209Z,100174.03
2023-08-22T21:37:51.924Z,100183.47
2023-08-22T21:40:18.725Z,100175.31
2023-08-22T21:42:45.745Z,100176.97
2023-08-22T21:45:13.940Z,100172.56
2023-08-22T21:47:41.218Z,100177.44
2023-08-22T21:50:08.966Z,100185.88
2023-08-22T21:52:38.049Z,100184.66
2023-08-22T21:55:05.717Z,100172.13
2023-08-22T21:57:33.332Z,100177.78
2023-08-22T22:00:00.225Z,100176.59
2023-08-22T22:02:27.114Z,100176.03
2023-08-22T22:04:53.939Z,100183.59
2023-08-22T22:07:20.764Z,100184.91
2023-08-22T22:09:47.544Z,100183.22
2023-08-22T22:12:14.298Z,100173.16
2023-08-22T22:14:41.209Z,100182.16
2023-08-22T22:17:08.365Z,100188.91
2023-08-22T22:19:35.183Z,100189.16
2023-08-22T22:22:02.032Z,100191.53
2023-08-22T22:24:28.746Z,100192.56
2023-08-22T22:26:55.480Z,100190.91
2023-08-22T22:29:22.199Z,100191.13
2023-08-22T22:31:48.917Z,100187.84
2023-08-22T22:34:15.644Z,100189.72
2023-08-22T22:36:42.439Z,100191.63
2023-08-22T22:39:09.188Z,100195.63
2023-08-22T22:41:35.964Z,100195.28
2023-08-22T22:44:02.735Z,100197.19
2023-08-22T22:46:29.461Z,100199.06
2023-08-22T22:48:56.200Z,100196.19
2023-08-22T22:51:22.958Z,100202.94
2023-08-22T22:53:49.632Z,100204.50
2023-08-22T22:56:16.323Z,100201.16
2023-08-22T22:58:43.354Z,100196.78
2023-08-22T23:01:10.234Z,100191.78
2023-08-22T23:03:37.153Z,100188.69
2023-08-22T23:06:08.404Z,100189.16
2023-08-22T23:08:35.308Z,100193.50
2023-08-22T23:11:04.485Z,100190.78
2023-08-22T23:13:33.258Z,100191.88
2023-08-22T23:15:59.998Z,100190.19
2023-08-22T23:18:26.677Z,100195.63
2023-08-22T23:20:53.367Z,100203.22
2023-08-22T23:23:20.106Z,100195.28
2023-08-22T23:25:52.372Z,100188.41
2023-08-22T23:28:19.251Z,100193.09
2023-08-22T23:30:46.077Z,100195.34
2023-08-22T23:33:13.387Z,100194.53
2023-08-22T23:35:40.246Z,100196.06
2023-08-22T23:38:08.508Z,100197.38
2023-08-22T23:40:35.875Z,100190.50
2023-08-22T23:43:02.705Z,100192.59
2023-08-22T23:45:32.611Z,100190.56
2023-08-22T23:47:59.617Z,100183.47
2023-08-22T23:50:26.572Z,100183.09
2023-08-22T23:52:53.356Z,100181.19
2023-08-22T23:55:21.987Z,100180.84
2023-08-22T23:57:49.889Z,100182.34
